Time,TemperatureF,DewpointF,PressureIn,WindDirection,WindDirectionDegrees,WindSpeedMPH,WindSpeedGustMPH,Humidity,HourlyPrecipIn,Conditions,Clouds,dailyrainin,SoftwareType,DateUTC
2013-07-21 00:02:00,71.1,69.0,29.83,South,170,0.0,-999.0,93,0.00,,,0.00,Wunderground v.1.15,2013-07-21 04:02:00,
2013-07-21 00:03:00,71.1,69.0,29.83,South,170,0.0,-999.0,93,0.00,,,0.00,Wunderground v.1.15,2013-07-21 04:03:00,
2013-07-21 00:05:00,71.0,68.9,29.83,South,170,0.0,-999.0,93,0.00,,,0.00,Wunderground v.1.15,2013-07-21 04:05:00,
2013-07-21 00:09:00,71.0,68.9,29.83,South,170,0.0,-999.0,93,0.00,,,0.00,Wunderground v.1.15,2013-07-21 04:09:00,
2013-07-21 00:15:00,71.0,69.2,29.83,South,170,0.0,-999.0,94,0.00,,,0.00,Wunderground v.1.15,2013-07-21 04:15:00,
2013-07-21 00:21:00,70.9,69.1,29.83,South,170,0.0,-999.0,94,0.00,,,0.00,Wunderground v.1.15,2013-07-21 04:21:00,
2013-07-21 00:26:00,70.7,68.9,29.83,South,170,0.0,-999.0,94,0.00,,,0.00,Wunderground v.1.15,2013-07-21 04:26:00,
2013-07-21 00:32:00,70.4,68.3,29.83,South,170,0.0,-999.0,93,0.00,,,0.00,Wunderground v.1.15,2013-07-21 04:32:00,
2013-07-21 00:38:00,70.3,68.5,29.83,South,170,0.0,-999.0,94,0.00,,,0.00,Wunderground v.1.15,2013-07-21 04:38:00,
2013-07-21 00:44:00,70.3,68.5,29.83,South,170,0.0,-999.0,94,0.00,,,0.00,Wunderground v.1.15,2013-07-21 04:44:00,
2013-07-21 00:50:00,70.2,68.4,29.83,South,170,0.0,-999.0,94,0.00,,,0.00,Wunderground v.1.15,2013-07-21 04:50:00,
2013-07-21 00:56:00,70.2,68.4,29.83,South,170,0.0,-999.0,94,0.00,,,0.00,Wunderground v.1.15,2013-07-21 04:56:00,
2013-07-21 01:01:00,70.1,68.3,29.83,South,170,0.0,-999.0,94,0.00,,,0.00,Wunderground v.1.15,2013-07-21 05:01:00,
2013-07-21 01:07:00,70.1,68.3,29.83,South,170,0.0,-999.0,94,0.00,,,0.00,Wunderground v.1.15,2013-07-21 05:07:00,
2013-07-21 01:13:00,70.1,68.3,29.83,South,170,0.0,-999.0,94,0.00,,,0.00,Wunderground v.1.15,2013-07-21 05:13:00,
2013-07-21 01:19:00,70.3,68.5,29.83,South,170,0.0,-999.0,94,0.00,,,0.00,Wunderground v.1.15,2013-07-21 05:19:00,
2013-07-21 01:25:00,70.6,68.8,29.83,South,170,0.0,-999.0,94,0.00,,,0.00,Wunderground v.1.15,2013-07-21 05:25:00,
2013-07-21 01:30:00,70.7,68.9,29.83,South,170,0.0,-999.0,94,0.00,,,0.00,Wunderground v.1.15,2013-07-21 05:30:00,
2013-07-21 01:36:00,70.8,69.0,29.83,South,170,0.0,-999.0,94,0.00,,,0.00,Wunderground v.1.15,2013-07-21 05:36:00,
2013-07-21 01:42:00,71.0,69.2,29.83,South,170,0.0,-999.0,94,0.00,,,0.00,Wunderground v.1.15,2013-07-21 05:42:00,
2013-07-21 01:48:00,71.3,69.5,29.83,South,170,0.0,-999.0,94,0.00,,,0.00,Wunderground v.1.15,2013-07-21 05:48:00,
2013-07-21 01:54:00,71.4,69.6,29.83,South,170,0.0,-999.0,94,0.00,,,0.00,Wunderground v.1.15,2013-07-21 05:54:00,
2013-07-21 02:00:00,71.4,69.6,29.82,South,170,0.0,-999.0,94,0.00,,,0.00,Wunderground v.1.15,2013-07-21 06:00:00,
2013-07-21 02:06:00,71.4,69.6,29.83,South,170,0.0,-999.0,94,0.00,,,0.00,Wunderground v.1.15,2013-07-21 06:06:00,
2013-07-21 02:12:00,71.4,69.6,29.83,South,170,0.0,-999.0,94,0.00,,,0.00,Wunderground v.1.15,2013-07-21 06:12:00,
2013-07-21 02:18:00,71.4,69.6,29.82,SW,217,0.0,-999.0,94,0.00,,,0.00,Wunderground v.1.15,2013-07-21 06:18:00,
2013-07-21 02:24:00,71.4,69.6,29.83,SW,217,0.0,-999.0,94,0.00,,,0.00,Wunderground v.1.15,2013-07-21 06:24:00,
2013-07-21 02:30:00,71.5,69.7,29.82,SW,217,0.0,-999.0,94,0.00,,,0.00,Wunderground v.1.15,2013-07-21 06:30:00,
2013-07-21 02:35:00,71.5,69.7,29.82,SW,217,0.0,-999.0,94,0.00,,,0.00,Wunderground v.1.15,2013-07-21 06:35:00,
2013-07-21 02:41:00,71.5,69.7,29.82,SW,217,0.0,-999.0,94,0.00,,,0.00,Wunderground v.1.15,2013-07-21 06:41:00,
2013-07-21 02:47:00,71.5,69.7,29.82,SW,217,0.0,-999.0,94,0.00,,,0.00,Wunderground v.1.15,2013-07-21 06:47:00,
2013-07-21 02:53:00,71.6,69.8,29.82,SW,217,0.0,-999.0,94,0.00,,,0.00,Wunderground v.1.15,2013-07-21 06:53:00,
2013-07-21 02:59:00,71.5,69.7,29.82,SW,217,0.0,-999.0,94,0.00,,,0.00,Wunderground v.1.15,2013-07-21 06:59:00,
2013-07-21 03:05:00,71.5,69.7,29.82,SW,217,0.0,-999.0,94,0.00,,,0.00,Wunderground v.1.15,2013-07-21 07:05:00,
2013-07-21 03:11:00,71.5,69.7,29.82,SW,217,0.0,-999.0,94,0.00,,,0.00,Wunderground v.1.15,2013-07-21 07:11:00,
2013-07-21 03:16:00,71.5,69.7,29.82,SW,217,0.0,-999.0,94,0.00,,,0.00,Wunderground v.1.15,2013-07-21 07:16:00,
2013-07-21 03:22:00,71.6,69.8,29.82,SW,217,0.0,-999.0,94,0.00,,,0.00,Wunderground v.1.15,2013-07-21 07:22:00,
2013-07-21 03:27:00,71.6,69.8,29.82,SW,217,0.0,-999.0,94,0.00,,,0.00,Wunderground v.1.15,2013-07-21 07:27:00,
2013-07-21 03:33:00,71.6,69.8,29.82,SW,217,0.0,-999.0,94,0.00,,,0.00,Wunderground v.1.15,2013-07-21 07:33:00,
2013-07-21 03:39:00,71.5,69.7,29.82,SW,217,0.0,-999.0,94,0.00,,,0.00,Wunderground v.1.15,2013-07-21 07:39:00,
2013-07-21 03:45:00,71.5,69.7,29.82,SW,217,0.0,-999.0,94,0.00,,,0.00,Wunderground v.1.15,2013-07-21 07:45:00,
2013-07-21 03:51:00,71.5,69.7,29.83,SW,217,0.0,-999.0,94,0.00,,,0.00,Wunderground v.1.15,2013-07-21 07:51:00,
2013-07-21 03:57:00,71.5,69.7,29.82,SW,217,0.0,-999.0,94,0.00,,,0.00,Wunderground v.1.15,2013-07-21 07:57:00,
2013-07-21 04:03:00,71.5,69.7,29.83,SW,217,0.0,-999.0,94,0.00,,,0.00,Wunderground v.1.15,2013-07-21 08:03:00,
2013-07-21 04:08:00,71.5,69.7,29.82,SW,217,0.0,-999.0,94,0.00,,,0.00,Wunderground v.1.15,2013-07-21 08:08:00,
2013-07-21 04:14:00,71.6,69.8,29.83,SW,217,0.0,-999.0,94,0.00,,,0.00,Wunderground v.1.15,2013-07-21 08:14:00,
2013-07-21 04:20:00,71.5,69.7,29.83,SW,217,0.0,-999.0,94,0.00,,,0.00,Wunderground v.1.15,2013-07-21 08:20:00,
2013-07-21 04:26:00,71.5,69.7,29.83,SW,217,0.0,-999.0,94,0.00,,,0.00,Wunderground v.1.15,2013-07-21 08:26:00,
2013-07-21 04:32:00,71.5,69.7,29.82,SW,217,0.0,-999.0,94,0.00,,,0.00,Wunderground v.1.15,2013-07-21 08:32:00,
2013-07-21 04:38:00,71.5,69.7,29.82,SW,217,0.0,-999.0,94,0.00,,,0.00,Wunderground v.1.15,2013-07-21 08:38:00,
2013-07-21 04:44:00,71.4,69.6,29.82,SW,217,0.0,-999.0,94,0.00,,,0.00,Wunderground v.1.15,2013-07-21 08:44:00,
2013-07-21 04:50:00,71.5,69.7,29.83,SW,217,0.0,-999.0,94,0.00,,,0.00,Wunderground v.1.15,2013-07-21 08:50:00,
2013-07-21 04:55:00,71.5,69.7,29.83,SW,217,0.0,-999.0,94,0.00,,,0.00,Wunderground v.1.15,2013-07-21 08:55:00,
2013-07-21 05:01:00,71.5,69.7,29.83,SW,217,0.0,-999.0,94,0.00,,,0.00,Wunderground v.1.15,2013-07-21 09:01:00,
2013-07-21 05:07:00,71.5,69.7,29.83,SW,217,0.0,-999.0,94,0.00,,,0.00,Wunderground v.1.15,2013-07-21 09:07:00,
2013-07-21 05:13:00,71.5,69.7,29.84,SW,217,0.0,-999.0,94,0.00,,,0.00,Wunderground v.1.15,2013-07-21 09:13:00,
2013-07-21 05:19:00,71.5,69.7,29.84,SW,217,0.0,-999.0,94,0.00,,,0.00,Wunderground v.1.15,2013-07-21 09:19:00,
2013-07-21 05:25:00,71.5,69.7,29.84,SW,217,0.0,-999.0,94,0.00,,,0.00,Wunderground v.1.15,2013-07-21 09:25:00,
2013-07-21 05:31:00,71.5,69.7,29.84,SW,217,0.0,-999.0,94,0.00,,,0.00,Wunderground v.1.15,2013-07-21 09:31:00,
2013-07-21 05:37:00,71.5,69.7,29.84,SW,217,0.0,-999.0,94,0.00,,,0.00,Wunderground v.1.15,2013-07-21 09:37:00,
2013-07-21 05:42:00,71.6,69.8,29.84,SW,217,0.0,-999.0,94,0.00,,,0.00,Wunderground v.1.15,2013-07-21 09:42:00,
2013-07-21 05:48:00,71.6,69.8,29.85,SW,217,0.0,-999.0,94,0.00,,,0.00,Wunderground v.1.15,2013-07-21 09:48:00,
2013-07-21 05:54:00,71.7,69.9,29.85,SW,217,0.0,-999.0,94,0.00,,,0.00,Wunderground v.1.15,2013-07-21 09:54:00,
2013-07-21 06:00:00,71.7,69.9,29.85,SW,217,0.0,-999.0,94,0.00,,,0.00,Wunderground v.1.15,2013-07-21 10:00:00,
2013-07-21 06:05:00,71.8,70.0,29.85,SW,217,0.0,-999.0,94,0.00,,,0.00,Wunderground v.1.15,2013-07-21 10:05:00,
2013-07-21 06:11:00,71.8,70.0,29.85,SW,217,0.0,-999.0,94,0.00,,,0.00,Wunderground v.1.15,2013-07-21 10:11:00,
2013-07-21 06:17:00,71.8,70.0,29.85,SW,217,0.0,-999.0,94,0.00,,,0.00,Wunderground v.1.15,2013-07-21 10:17:00,
2013-07-21 06:23:00,71.9,70.1,29.85,SW,217,0.0,-999.0,94,0.00,,,0.00,Wunderground v.1.15,2013-07-21 10:23:00,
2013-07-21 06:28:00,71.9,70.1,29.85,SW,217,0.0,-999.0,94,0.00,,,0.00,Wunderground v.1.15,2013-07-21 10:28:00,
2013-07-21 06:34:00,71.9,70.1,29.86,SW,217,0.0,-999.0,94,0.00,,,0.00,Wunderground v.1.15,2013-07-21 10:34:00,
2013-07-21 06:40:00,71.8,70.0,29.85,SW,217,0.0,-999.0,94,0.00,,,0.00,Wunderground v.1.15,2013-07-21 10:40:00,
2013-07-21 06:46:00,71.8,70.0,29.86,SW,217,0.0,-999.0,94,0.00,,,0.00,Wunderground v.1.15,2013-07-21 10:46:00,
2013-07-21 06:52:00,71.8,70.0,29.86,SW,217,0.0,-999.0,94,0.00,,,0.00,Wunderground v.1.15,2013-07-21 10:52:00,
2013-07-21 06:58:00,71.8,70.0,29.86,SW,217,0.0,-999.0,94,0.00,,,0.00,Wunderground v.1.15,2013-07-21 10:58:00,
2013-07-21 07:04:00,71.9,70.1,29.85,SW,217,0.0,-999.0,94,0.00,,,0.00,Wunderground v.1.15,2013-07-21 11:04:00,
2013-07-21 07:09:00,72.0,70.2,29.85,SW,217,0.0,-999.0,94,0.00,,,0.00,Wunderground v.1.15,2013-07-21 11:09:00,
2013-07-21 07:15:00,72.1,70.3,29.85,SW,217,0.0,-999.0,94,0.00,,,0.00,Wunderground v.1.15,2013-07-21 11:15:00,
2013-07-21 07:21:00,72.2,70.4,29.85,SW,217,0.0,-999.0,94,0.00,,,0.00,Wunderground v.1.15,2013-07-21 11:21:00,
2013-07-21 07:27:00,72.2,70.4,29.85,SW,217,0.0,-999.0,94,0.00,,,0.00,Wunderground v.1.15,2013-07-21 11:27:00,
2013-07-21 07:33:00,72.2,70.4,29.85,SW,217,0.0,-999.0,94,0.00,,,0.00,Wunderground v.1.15,2013-07-21 11:33:00,
2013-07-21 07:36:00,72.3,70.5,29.85,SW,217,0.0,-999.0,94,0.00,,,0.00,Wunderground v.1.15,2013-07-21 11:36:00,
2013-07-21 07:42:00,72.4,70.6,29.85,SW,217,0.0,-999.0,94,0.00,,,0.00,Wunderground v.1.15,2013-07-21 11:42:00,
2013-07-21 07:48:00,72.4,70.6,29.85,SW,217,0.0,-999.0,94,0.00,,,0.00,Wunderground v.1.15,2013-07-21 11:48:00,
2013-07-21 07:54:00,72.5,70.7,29.86,SW,217,0.0,-999.0,94,0.00,,,0.00,Wunderground v.1.15,2013-07-21 11:54:00,
2013-07-21 08:00:00,72.6,70.8,29.86,SW,217,0.0,-999.0,94,0.00,,,0.00,Wunderground v.1.15,2013-07-21 12:00:00,
2013-07-21 08:06:00,72.8,71.0,29.86,SW,217,0.0,-999.0,94,0.00,,,0.00,Wunderground v.1.15,2013-07-21 12:06:00,
2013-07-21 08:12:00,72.8,71.0,29.87,SW,217,0.0,-999.0,94,0.00,,,0.00,Wunderground v.1.15,2013-07-21 12:12:00,
2013-07-21 08:17:00,72.6,70.5,29.87,SW,217,0.0,-999.0,93,0.00,,,0.00,Wunderground v.1.15,2013-07-21 12:17:00,
2013-07-21 08:23:00,72.7,70.6,29.87,SW,217,0.0,-999.0,93,0.00,,,0.00,Wunderground v.1.15,2013-07-21 12:23:00,
2013-07-21 08:29:00,72.9,70.8,29.86,SW,217,0.0,-999.0,93,0.00,,,0.00,Wunderground v.1.15,2013-07-21 12:29:00,
2013-07-21 08:35:00,73.1,70.6,29.86,SW,217,0.0,-999.0,92,0.00,,,0.00,Wunderground v.1.15,2013-07-21 12:35:00,
2013-07-21 08:41:00,73.2,70.7,29.86,SW,217,0.0,-999.0,92,0.00,,,0.00,Wunderground v.1.15,2013-07-21 12:41:00,
2013-07-21 08:47:00,73.4,70.9,29.86,SW,217,0.0,-999.0,92,0.00,,,0.00,Wunderground v.1.15,2013-07-21 12:47:00,
2013-07-21 08:53:00,73.9,71.4,29.86,SW,217,0.0,-999.0,92,0.00,,,0.00,Wunderground v.1.15,2013-07-21 12:53:00,
2013-07-21 08:58:00,74.3,71.5,29.86,SW,217,0.0,-999.0,91,0.00,,,0.00,Wunderground v.1.15,2013-07-21 12:58:00,
2013-07-21 09:04:00,74.8,71.3,29.86,SW,217,0.0,-999.0,89,0.00,,,0.00,Wunderground v.1.15,2013-07-21 13:04:00,
2013-07-21 09:10:00,75.1,71.6,29.87,SW,217,0.0,-999.0,89,0.00,,,0.00,Wunderground v.1.15,2013-07-21 13:10:00,
2013-07-21 09:16:00,75.2,71.1,29.87,SW,217,0.0,-999.0,87,0.00,,,0.00,Wunderground v.1.15,2013-07-21 13:16:00,
2013-07-21 09:22:00,75.3,71.5,29.87,SW,217,0.0,-999.0,88,0.00,,,0.00,Wunderground v.1.15,2013-07-21 13:22:00,
2013-07-21 09:28:00,75.3,71.2,29.87,SW,217,0.0,-999.0,87,0.00,,,0.00,Wunderground v.1.15,2013-07-21 13:28:00,
2013-07-21 09:34:00,75.2,71.4,29.87,SW,217,1.0,-999.0,88,0.00,,,0.00,Wunderground v.1.15,2013-07-21 13:34:00,
2013-07-21 09:39:00,75.1,71.6,29.87,SW,217,1.0,-999.0,89,0.00,,,0.00,Wunderground v.1.15,2013-07-21 13:39:00,
2013-07-21 09:45:00,74.9,71.4,29.87,SSW,192,2.0,-999.0,89,0.00,,,0.00,Wunderground v.1.15,2013-07-21 13:45:00,
2013-07-21 09:51:00,75.0,71.5,29.87,SSW,192,2.0,-999.0,89,0.00,,,0.00,Wunderground v.1.15,2013-07-21 13:51:00,
2013-07-21 09:57:00,75.4,71.9,29.87,SSW,192,1.0,-999.0,89,0.00,,,0.00,Wunderground v.1.15,2013-07-21 13:57:00,
2013-07-21 10:02:00,75.7,71.9,29.87,SSW,192,0.0,-999.0,88,0.00,,,0.00,Wunderground v.1.15,2013-07-21 14:02:00,
2013-07-21 10:08:00,75.8,71.3,29.87,SSW,192,1.0,-999.0,86,0.00,,,0.00,Wunderground v.1.15,2013-07-21 14:08:00,
2013-07-21 10:14:00,75.8,71.7,29.87,SSW,192,1.0,-999.0,87,0.00,,,0.00,Wunderground v.1.15,2013-07-21 14:14:00,
2013-07-21 10:20:00,75.7,71.6,29.87,SSW,192,1.0,-999.0,87,0.00,,,0.00,Wunderground v.1.15,2013-07-21 14:20:00,
2013-07-21 10:26:00,75.8,71.3,29.88,SSW,192,0.0,-999.0,86,0.00,,,0.00,Wunderground v.1.15,2013-07-21 14:26:00,
2013-07-21 10:32:00,75.8,71.7,29.88,SSW,192,0.0,-999.0,87,0.00,,,0.00,Wunderground v.1.15,2013-07-21 14:32:00,
2013-07-21 10:38:00,76.0,71.8,29.88,SSW,192,0.0,-999.0,87,0.00,,,0.00,Wunderground v.1.15,2013-07-21 14:38:00,
2013-07-21 10:44:00,76.6,72.4,29.88,SSW,192,1.0,-999.0,87,0.00,,,0.00,Wunderground v.1.15,2013-07-21 14:44:00,
2013-07-21 10:50:00,77.3,72.4,29.88,SSW,192,2.0,-999.0,85,0.00,,,0.00,Wunderground v.1.15,2013-07-21 14:50:00,
2013-07-21 10:55:00,77.5,71.9,29.88,SSW,192,2.0,-999.0,83,0.00,,,0.00,Wunderground v.1.15,2013-07-21 14:55:00,
2013-07-21 11:01:00,77.8,72.6,29.87,SSW,192,2.0,-999.0,84,0.00,,,0.00,Wunderground v.1.15,2013-07-21 15:01:00,
2013-07-21 11:06:00,78.0,72.4,29.88,South,186,2.0,-999.0,83,0.00,,,0.00,Wunderground v.1.15,2013-07-21 15:06:00,
2013-07-21 11:12:00,78.3,72.7,29.88,SSW,200,1.0,-999.0,83,0.00,,,0.00,Wunderground v.1.15,2013-07-21 15:12:00,
2013-07-21 11:18:00,78.5,72.5,29.88,South,182,2.0,-999.0,82,0.00,,,0.00,Wunderground v.1.15,2013-07-21 15:18:00,
2013-07-21 11:24:00,78.5,72.2,29.88,South,186,2.0,-999.0,81,0.00,,,0.00,Wunderground v.1.15,2013-07-21 15:24:00,
2013-07-21 11:30:00,78.3,72.0,29.88,South,186,1.0,-999.0,81,0.00,,,0.00,Wunderground v.1.15,2013-07-21 15:30:00,
2013-07-21 11:36:00,78.6,71.9,29.88,South,186,0.0,-999.0,80,0.00,,,0.00,Wunderground v.1.15,2013-07-21 15:36:00,
2013-07-21 11:42:00,79.0,72.3,29.88,South,186,0.0,-999.0,80,0.00,,,0.00,Wunderground v.1.15,2013-07-21 15:42:00,
2013-07-21 11:47:00,79.2,72.1,29.88,South,186,1.0,-999.0,79,0.00,,,0.00,Wunderground v.1.15,2013-07-21 15:47:00,
2013-07-21 11:53:00,79.6,72.5,29.88,South,186,1.0,-999.0,79,0.00,,,0.00,Wunderground v.1.15,2013-07-21 15:53:00,
2013-07-21 11:58:00,80.1,73.0,29.88,South,186,1.0,-999.0,79,0.00,,,0.00,Wunderground v.1.15,2013-07-21 15:58:00,
2013-07-21 12:04:00,80.4,72.5,29.88,South,186,1.0,-999.0,77,0.00,,,0.00,Wunderground v.1.15,2013-07-21 16:04:00,
2013-07-21 12:10:00,80.2,72.3,29.88,South,185,1.0,-999.0,77,0.00,,,0.00,Wunderground v.1.15,2013-07-21 16:10:00,
2013-07-21 12:16:00,80.3,72.0,29.88,South,185,0.0,-999.0,76,0.00,,,0.00,Wunderground v.1.15,2013-07-21 16:16:00,
2013-07-21 12:22:00,80.4,72.5,29.88,South,185,0.0,-999.0,77,0.00,,,0.00,Wunderground v.1.15,2013-07-21 16:22:00,
2013-07-21 12:28:00,80.5,72.6,29.88,South,185,1.0,-999.0,77,0.00,,,0.00,Wunderground v.1.15,2013-07-21 16:28:00,
2013-07-21 12:34:00,80.8,72.5,29.88,South,185,1.0,-999.0,76,0.00,,,0.00,Wunderground v.1.15,2013-07-21 16:34:00,
2013-07-21 12:39:00,81.1,72.0,29.88,NE,49,1.0,-999.0,74,0.00,,,0.00,Wunderground v.1.15,2013-07-21 16:39:00,
2013-07-21 12:45:00,81.4,73.1,29.88,SSE,159,0.0,-999.0,76,0.00,,,0.00,Wunderground v.1.15,2013-07-21 16:45:00,
2013-07-21 12:51:00,81.7,73.4,29.88,SSE,160,0.0,-999.0,76,0.00,,,0.00,Wunderground v.1.15,2013-07-21 16:51:00,
2013-07-21 12:57:00,82.0,72.9,29.88,SSE,160,0.0,-999.0,74,0.00,,,0.00,Wunderground v.1.15,2013-07-21 16:57:00,
2013-07-21 13:03:00,82.2,72.7,29.88,SSE,160,0.0,-999.0,73,0.00,,,0.00,Wunderground v.1.15,2013-07-21 17:03:00,
2013-07-21 13:09:00,82.6,74.3,29.87,SSE,160,0.0,-999.0,76,0.00,,,0.00,Wunderground v.1.15,2013-07-21 17:09:00,
2013-07-21 13:15:00,83.1,73.5,29.87,SSE,160,0.0,-999.0,73,0.00,,,0.00,Wunderground v.1.15,2013-07-21 17:15:00,
2013-07-21 13:21:00,83.7,72.4,29.87,SW,223,0.0,-999.0,69,0.00,,,0.00,Wunderground v.1.15,2013-07-21 17:21:00,
2013-07-21 13:26:00,83.6,73.2,29.87,SSW,210,1.0,-999.0,71,0.00,,,0.00,Wunderground v.1.15,2013-07-21 17:26:00,
2013-07-21 13:32:00,83.4,72.2,29.87,South,186,2.0,-999.0,69,0.00,,,0.00,Wunderground v.1.15,2013-07-21 17:32:00,
2013-07-21 13:38:00,83.6,72.8,29.86,SSW,201,2.0,-999.0,70,0.00,,,0.00,Wunderground v.1.15,2013-07-21 17:38:00,
2013-07-21 13:44:00,83.6,72.3,29.86,South,186,2.0,-999.0,69,0.00,,,0.00,Wunderground v.1.15,2013-07-21 17:44:00,
2013-07-21 13:50:00,83.8,74.2,29.86,SSE,166,3.0,-999.0,73,0.00,,,0.00,Wunderground v.1.15,2013-07-21 17:50:00,
2013-07-21 13:56:00,84.2,73.3,29.86,South,171,2.0,-999.0,70,0.00,,,0.00,Wunderground v.1.15,2013-07-21 17:56:00,
2013-07-21 14:02:00,83.7,72.9,29.86,ENE,63,2.0,-999.0,70,0.00,,,0.00,Wunderground v.1.15,2013-07-21 18:02:00,
2013-07-21 14:08:00,83.4,71.7,29.86,NE,55,1.0,-999.0,68,0.00,,,0.00,Wunderground v.1.15,2013-07-21 18:08:00,
2013-07-21 14:13:00,83.4,72.6,29.86,SSW,194,1.0,-999.0,70,0.00,,,0.00,Wunderground v.1.15,2013-07-21 18:13:00,
2013-07-21 14:19:00,83.2,73.2,29.86,South,175,1.0,-999.0,72,0.00,,,0.00,Wunderground v.1.15,2013-07-21 18:19:00,
2013-07-21 14:25:00,82.9,72.5,29.86,South,177,2.0,-999.0,71,0.00,,,0.00,Wunderground v.1.15,2013-07-21 18:25:00,
2013-07-21 14:31:00,82.6,71.8,29.85,South,173,2.0,-999.0,70,0.00,,,0.00,Wunderground v.1.15,2013-07-21 18:31:00,
2013-07-21 14:37:00,82.9,72.5,29.85,South,173,1.0,-999.0,71,0.00,,,0.00,Wunderground v.1.15,2013-07-21 18:37:00,
2013-07-21 14:43:00,83.1,71.0,29.85,SSW,199,2.0,-999.0,67,0.00,,,0.00,Wunderground v.1.15,2013-07-21 18:43:00,
2013-07-21 14:49:00,83.3,71.2,29.85,South,184,2.0,-999.0,67,0.00,,,0.00,Wunderground v.1.15,2013-07-21 18:49:00,
2013-07-21 14:54:00,83.7,72.4,29.84,South,186,1.0,-999.0,69,0.00,,,0.00,Wunderground v.1.15,2013-07-21 18:54:00,
2013-07-21 15:00:00,84.2,72.5,29.84,South,178,2.0,-999.0,68,0.00,,,0.00,Wunderground v.1.15,2013-07-21 19:00:00,
2013-07-21 15:06:00,84.5,71.9,29.84,SSW,196,1.0,-999.0,66,0.00,,,0.00,Wunderground v.1.15,2013-07-21 19:06:00,
2013-07-21 15:12:00,84.2,72.5,29.84,South,190,1.0,-999.0,68,0.00,,,0.00,Wunderground v.1.15,2013-07-21 19:12:00,
2013-07-21 15:18:00,84.3,72.1,29.84,SSW,212,1.0,-999.0,67,0.00,,,0.00,Wunderground v.1.15,2013-07-21 19:18:00,
2013-07-21 15:24:00,84.4,72.7,29.84,SSW,212,0.0,-999.0,68,0.00,,,0.00,Wunderground v.1.15,2013-07-21 19:24:00,
2013-07-21 15:30:00,84.5,72.8,29.84,SW,222,1.0,-999.0,68,0.00,,,0.00,Wunderground v.1.15,2013-07-21 19:30:00,
2013-07-21 15:36:00,84.4,72.2,29.84,SSW,213,1.0,-999.0,67,0.00,,,0.00,Wunderground v.1.15,2013-07-21 19:36:00,
2013-07-21 15:42:00,84.1,72.0,29.84,SSW,212,1.0,-999.0,67,0.00,,,0.00,Wunderground v.1.15,2013-07-21 19:42:00,
2013-07-21 15:48:00,84.3,71.7,29.84,South,173,1.0,-999.0,66,0.00,,,0.00,Wunderground v.1.15,2013-07-21 19:48:00,
2013-07-21 15:53:00,84.4,70.9,29.84,SW,220,0.0,-999.0,64,0.00,,,0.00,Wunderground v.1.15,2013-07-21 19:53:00,
2013-07-21 15:59:00,84.7,71.6,29.83,South,190,0.0,-999.0,65,0.00,,,0.00,Wunderground v.1.15,2013-07-21 19:59:00,
2013-07-21 16:05:00,84.6,71.1,29.83,SW,219,1.0,-999.0,64,0.00,,,0.00,Wunderground v.1.15,2013-07-21 20:05:00,
2013-07-21 16:11:00,84.4,70.9,29.83,SSW,208,1.0,-999.0,64,0.00,,,0.00,Wunderground v.1.15,2013-07-21 20:11:00,
2013-07-21 16:17:00,83.9,70.9,29.83,SSW,209,1.0,-999.0,65,0.00,,,0.00,Wunderground v.1.15,2013-07-21 20:17:00,
2013-07-21 16:23:00,83.5,71.4,29.83,SSW,209,1.0,-999.0,67,0.00,,,0.00,Wunderground v.1.15,2013-07-21 20:23:00,
2013-07-21 16:29:00,83.1,71.4,29.83,SSW,209,1.0,-999.0,68,0.00,,,0.00,Wunderground v.1.15,2013-07-21 20:29:00,
2013-07-21 16:35:00,83.1,71.9,29.83,SSW,209,1.0,-999.0,69,0.00,,,0.00,Wunderground v.1.15,2013-07-21 20:35:00,
2013-07-21 16:40:00,83.2,72.4,29.83,NNE,18,1.0,-999.0,70,0.00,,,0.00,Wunderground v.1.15,2013-07-21 20:40:00,
2013-07-21 16:46:00,82.4,70.8,29.83,NNE,13,2.0,-999.0,68,0.00,,,0.00,Wunderground v.1.15,2013-07-21 20:46:00,
2013-07-21 16:52:00,81.3,70.6,29.84,NE,49,2.0,-999.0,70,0.00,,,0.00,Wunderground v.1.15,2013-07-21 20:52:00,
2013-07-21 16:58:00,80.4,70.5,29.84,NE,41,1.0,-999.0,72,0.00,,,0.00,Wunderground v.1.15,2013-07-21 20:58:00,
2013-07-21 17:04:00,79.6,70.2,29.84,North,10,2.0,-999.0,73,0.00,,,0.00,Wunderground v.1.15,2013-07-21 21:04:00,
2013-07-21 17:10:00,79.0,69.6,29.83,NE,40,2.0,-999.0,73,0.00,,,0.00,Wunderground v.1.15,2013-07-21 21:10:00,
2013-07-21 17:16:00,78.7,69.3,29.83,ENE,61,2.0,-999.0,73,0.00,,,0.00,Wunderground v.1.15,2013-07-21 21:16:00,
2013-07-21 17:18:00,78.6,69.2,29.83,North,5,2.0,-999.0,73,0.00,,,0.00,Wunderground v.1.15,2013-07-21 21:18:00,
2013-07-21 17:24:00,78.4,69.0,29.83,NNW,348,2.0,-999.0,73,0.00,,,0.00,Wunderground v.1.15,2013-07-21 21:24:00,
2013-07-21 17:30:00,77.8,68.4,29.83,ENE,70,3.0,-999.0,73,0.00,,,0.00,Wunderground v.1.15,2013-07-21 21:30:00,
2013-07-21 17:36:00,77.5,68.9,29.83,NE,55,3.0,-999.0,75,0.00,,,0.00,Wunderground v.1.15,2013-07-21 21:36:00,
2013-07-21 17:42:00,77.2,69.0,29.83,ENE,59,2.0,-999.0,76,0.00,,,0.00,Wunderground v.1.15,2013-07-21 21:42:00,
2013-07-21 17:47:00,77.1,68.9,29.84,South,171,1.0,-999.0,76,0.00,,,0.00,Wunderground v.1.15,2013-07-21 21:47:00,
2013-07-21 17:53:00,77.0,68.9,29.84,North,9,1.0,-999.0,76,0.00,,,0.00,Wunderground v.1.15,2013-07-21 21:53:00,
2013-07-21 17:58:00,77.0,69.2,29.84,NNE,18,1.0,-999.0,77,0.00,,,0.00,Wunderground v.1.15,2013-07-21 21:58:00,
2013-07-21 18:04:00,76.9,69.1,29.85,SSW,194,0.0,-999.0,77,0.00,,,0.00,Wunderground v.1.15,2013-07-21 22:04:00,
2013-07-21 18:10:00,75.9,68.5,29.84,SSW,203,3.0,-999.0,78,0.00,,,0.00,Wunderground v.1.15,2013-07-21 22:10:00,
2013-07-21 18:16:00,74.6,68.0,29.84,SSW,209,3.0,-999.0,80,0.00,,,0.00,Wunderground v.1.15,2013-07-21 22:16:00,
2013-07-21 18:22:00,74.0,68.2,29.84,SSW,209,1.0,-999.0,82,0.00,,,0.00,Wunderground v.1.15,2013-07-21 22:22:00,
2013-07-21 18:28:00,74.0,68.5,29.84,South,188,2.0,-999.0,83,0.00,,,0.00,Wunderground v.1.15,2013-07-21 22:28:00,
2013-07-21 18:34:00,74.1,68.6,29.84,South,188,1.0,-999.0,83,0.00,,,0.00,Wunderground v.1.15,2013-07-21 22:34:00,
2013-07-21 18:40:00,74.3,69.1,29.84,South,188,0.0,-999.0,84,0.00,,,0.00,Wunderground v.1.15,2013-07-21 22:40:00,
2013-07-21 18:45:00,74.5,69.3,29.84,South,188,0.0,-999.0,84,0.00,,,0.00,Wunderground v.1.15,2013-07-21 22:45:00,
2013-07-21 18:51:00,74.6,69.1,29.84,South,188,0.0,-999.0,83,0.00,,,0.00,Wunderground v.1.15,2013-07-21 22:51:00,
2013-07-21 18:57:00,74.8,69.3,29.84,WSW,245,0.0,-999.0,83,0.00,,,0.00,Wunderground v.1.15,2013-07-21 22:57:00,
2013-07-21 19:03:00,74.9,69.4,29.84,WSW,245,0.0,-999.0,83,0.00,,,0.00,Wunderground v.1.15,2013-07-21 23:03:00,
2013-07-21 19:09:00,74.9,69.4,29.84,WSW,245,0.0,-999.0,83,0.00,,,0.00,Wunderground v.1.15,2013-07-21 23:09:00,
2013-07-21 19:15:00,75.0,69.5,29.84,WSW,245,0.0,-999.0,83,0.00,,,0.00,Wunderground v.1.15,2013-07-21 23:15:00,
2013-07-21 19:21:00,75.1,69.2,29.83,WSW,245,0.0,-999.0,82,0.00,,,0.00,Wunderground v.1.15,2013-07-21 23:21:00,
2013-07-21 19:27:00,75.2,69.7,29.83,WSW,245,0.0,-999.0,83,0.00,,,0.00,Wunderground v.1.15,2013-07-21 23:27:00,
2013-07-21 19:32:00,75.2,69.7,29.83,WSW,245,0.0,-999.0,83,0.00,,,0.00,Wunderground v.1.15,2013-07-21 23:32:00,
2013-07-21 19:38:00,75.3,69.8,29.83,WSW,245,0.0,-999.0,83,0.00,,,0.00,Wunderground v.1.15,2013-07-21 23:38:00,
2013-07-21 19:44:00,75.2,69.3,29.83,WSW,245,0.0,-999.0,82,0.00,,,0.00,Wunderground v.1.15,2013-07-21 23:44:00,
2013-07-21 19:50:00,75.2,69.3,29.83,WSW,245,0.0,-999.0,82,0.00,,,0.00,Wunderground v.1.15,2013-07-21 23:50:00,
2013-07-21 19:56:00,75.2,69.3,29.83,WSW,245,0.0,-999.0,82,0.00,,,0.00,Wunderground v.1.15,2013-07-21 23:56:00,
2013-07-21 20:02:00,75.1,69.2,29.82,WSW,245,0.0,-999.0,82,0.00,,,0.00,Wunderground v.1.15,2013-07-22 00:02:00,
2013-07-21 20:08:00,75.0,69.1,29.82,WSW,245,0.0,-999.0,82,0.00,,,0.00,Wunderground v.1.15,2013-07-22 00:08:00,
2013-07-21 20:13:00,74.8,69.3,29.82,WSW,245,0.0,-999.0,83,0.00,,,0.00,Wunderground v.1.15,2013-07-22 00:13:00,
2013-07-21 20:19:00,74.7,69.5,29.83,WSW,245,0.0,-999.0,84,0.00,,,0.00,Wunderground v.1.15,2013-07-22 00:19:00,
2013-07-21 20:25:00,74.5,69.3,29.83,WSW,245,0.0,-999.0,84,0.00,,,0.00,Wunderground v.1.15,2013-07-22 00:25:00,
2013-07-21 20:31:00,74.3,69.5,29.83,WSW,245,0.0,-999.0,85,0.00,,,0.00,Wunderground v.1.15,2013-07-22 00:31:00,
2013-07-21 20:37:00,74.0,69.2,29.83,WSW,245,0.0,-999.0,85,0.00,,,0.00,Wunderground v.1.15,2013-07-22 00:37:00,
2013-07-21 20:43:00,73.9,69.1,29.83,WSW,245,0.0,-999.0,85,0.00,,,0.00,Wunderground v.1.15,2013-07-22 00:43:00,
2013-07-21 20:49:00,73.6,69.2,29.83,WSW,245,0.0,-999.0,86,0.00,,,0.00,Wunderground v.1.15,2013-07-22 00:49:00,
2013-07-21 20:54:00,73.4,69.0,29.82,WSW,245,0.0,-999.0,86,0.00,,,0.00,Wunderground v.1.15,2013-07-22 00:54:00,
2013-07-21 21:00:00,73.3,69.2,29.83,WSW,245,0.0,-999.0,87,0.00,,,0.00,Wunderground v.1.15,2013-07-22 01:00:00,
2013-07-21 21:05:00,73.1,69.3,29.83,WSW,245,0.0,-999.0,88,0.00,,,0.00,Wunderground v.1.15,2013-07-22 01:05:00,
2013-07-21 21:11:00,73.0,69.2,29.84,WSW,245,0.0,-999.0,88,0.00,,,0.00,Wunderground v.1.15,2013-07-22 01:11:00,
2013-07-21 21:17:00,72.8,69.4,29.84,WSW,245,0.0,-999.0,89,0.00,,,0.00,Wunderground v.1.15,2013-07-22 01:17:00,
2013-07-21 21:23:00,72.6,69.2,29.84,WSW,245,0.0,-999.0,89,0.00,,,0.00,Wunderground v.1.15,2013-07-22 01:23:00,
2013-07-21 21:29:00,72.4,69.0,29.85,WSW,245,0.0,-999.0,89,0.00,,,0.00,Wunderground v.1.15,2013-07-22 01:29:00,
2013-07-21 21:35:00,72.2,69.1,29.85,WSW,245,0.0,-999.0,90,0.00,,,0.00,Wunderground v.1.15,2013-07-22 01:35:00,
2013-07-21 21:40:00,72.0,68.9,29.85,WSW,245,0.0,-999.0,90,0.00,,,0.00,Wunderground v.1.15,2013-07-22 01:40:00,
2013-07-21 21:46:00,71.9,69.1,29.85,WSW,245,0.0,-999.0,91,0.00,,,0.00,Wunderground v.1.15,2013-07-22 01:46:00,
2013-07-21 21:52:00,71.7,68.9,29.85,WSW,245,0.0,-999.0,91,0.00,,,0.00,Wunderground v.1.15,2013-07-22 01:52:00,
2013-07-21 21:58:00,71.7,68.9,29.85,WSW,245,0.0,-999.0,91,0.00,,,0.00,Wunderground v.1.15,2013-07-22 01:58:00,
2013-07-21 22:04:00,71.5,69.1,29.86,WSW,245,0.0,-999.0,92,0.00,,,0.00,Wunderground v.1.15,2013-07-22 02:04:00,
2013-07-21 22:10:00,71.3,68.9,29.86,WSW,245,0.0,-999.0,92,0.00,,,0.00,Wunderground v.1.15,2013-07-22 02:10:00,
2013-07-21 22:16:00,71.3,68.9,29.86,WSW,245,0.0,-999.0,92,0.00,,,0.00,Wunderground v.1.15,2013-07-22 02:16:00,
2013-07-21 22:17:00,71.3,68.9,29.86,WSW,245,0.0,-999.0,92,0.00,,,0.00,Wunderground v.1.15,2013-07-22 02:17:00,
2013-07-21 22:23:00,71.2,68.8,29.86,WSW,245,0.0,-999.0,92,0.00,,,0.00,Wunderground v.1.15,2013-07-22 02:23:00,
2013-07-21 22:28:00,71.2,68.8,29.87,WSW,245,0.0,-999.0,92,0.00,,,0.00,Wunderground v.1.15,2013-07-22 02:28:00,
2013-07-21 22:34:00,71.2,68.8,29.87,WSW,245,0.0,-999.0,92,0.00,,,0.00,Wunderground v.1.15,2013-07-22 02:34:00,
2013-07-21 22:39:00,71.2,68.8,29.87,WSW,245,0.0,-999.0,92,0.00,,,0.00,Wunderground v.1.15,2013-07-22 02:39:00,
2013-07-21 22:45:00,71.1,68.7,29.87,WSW,245,0.0,-999.0,92,0.00,,,0.00,Wunderground v.1.15,2013-07-22 02:45:00,
2013-07-21 22:51:00,71.0,68.6,29.87,WSW,245,0.0,-999.0,92,0.00,,,0.00,Wunderground v.1.15,2013-07-22 02:51:00,
2013-07-21 22:57:00,70.8,68.4,29.87,WSW,245,0.0,-999.0,92,0.00,,,0.00,Wunderground v.1.15,2013-07-22 02:57:00,
2013-07-21 23:02:00,70.7,68.3,29.87,WSW,245,0.0,-999.0,92,0.00,,,0.00,Wunderground v.1.15,2013-07-22 03:02:00,
2013-07-21 23:08:00,70.5,68.1,29.87,WSW,245,0.0,-999.0,92,0.00,,,0.00,Wunderground v.1.15,2013-07-22 03:08:00,
2013-07-21 23:14:00,70.3,67.9,29.87,WSW,245,0.0,-999.0,92,0.00,,,0.00,Wunderground v.1.15,2013-07-22 03:14:00,
2013-07-21 23:19:00,70.2,68.1,29.87,WSW,245,0.0,-999.0,93,0.00,,,0.00,Wunderground v.1.15,2013-07-22 03:19:00,
2013-07-21 23:25:00,70.1,68.0,29.87,WSW,245,0.0,-999.0,93,0.00,,,0.00,Wunderground v.1.15,2013-07-22 03:25:00,
2013-07-21 23:31:00,69.9,67.5,29.87,WSW,245,0.0,-999.0,92,0.00,,,0.00,Wunderground v.1.15,2013-07-22 03:31:00,
2013-07-21 23:37:00,69.7,67.6,29.87,WSW,245,0.0,-999.0,93,0.00,,,0.00,Wunderground v.1.15,2013-07-22 03:37:00,
2013-07-21 23:43:00,69.7,67.6,29.87,WSW,245,0.0,-999.0,93,0.00,,,0.00,Wunderground v.1.15,2013-07-22 03:43:00,
2013-07-21 23:49:00,69.5,67.4,29.87,WSW,245,0.0,-999.0,93,0.00,,,0.00,Wunderground v.1.15,2013-07-22 03:49:00,
2013-07-21 23:55:00,69.5,67.4,29.87,WSW,245,0.0,-999.0,93,0.00,,,0.00,Wunderground v.1.15,2013-07-22 03:55:00,